createdAt,value
2018-09-29T00:03:12.102Z,9.40
2018-09-29T00:08:14.198Z,9.20
2018-09-29T00:13:16.370Z,9.20
2018-09-29T00:18:18.512Z,9.10
2018-09-29T00:23:20.678Z,9.00
2018-09-29T00:28:22.841Z,8.80
2018-09-29T00:33:25.002Z,8.70
2018-09-29T00:38:27.190Z,8.60
2018-09-29T00:43:29.346Z,8.60
2018-09-29T00:48:31.482Z,8.60
2018-09-29T00:53:33.637Z,8.40
2018-09-29T00:58:35.801Z,8.40
2018-09-29T01:03:37.926Z,8.30
2018-09-29T01:08:40.069Z,8.20
2018-09-29T01:13:42.202Z,8.20
2018-09-29T01:18:44.341Z,8.00
2018-09-29T01:23:46.466Z,8.00
2018-09-29T01:28:48.606Z,7.90
2018-09-29T01:33:50.730Z,7.80
2018-09-29T01:38:52.860Z,7.60
2018-09-29T01:43:54.986Z,7.60
2018-09-29T01:48:57.128Z,7.60
2018-09-29T01:53:59.285Z,7.50
2018-09-29T01:59:01.437Z,7.50
2018-09-29T02:04:03.566Z,7.40
2018-09-29T02:09:06.026Z,7.30
2018-09-29T02:14:08.158Z,7.30
2018-09-29T02:19:10.306Z,7.20
2018-09-29T02:24:12.426Z,7.10
2018-09-29T02:29:14.570Z,7.10
2018-09-29T02:34:16.950Z,7.10
2018-09-29T02:39:19.158Z,7.10
2018-09-29T02:44:21.501Z,7.00
2018-09-29T02:49:23.651Z,6.90
2018-09-29T02:54:25.995Z,6.90
2018-09-29T02:59:28.352Z,6.80
2018-09-29T03:04:30.522Z,6.80
2018-09-29T03:09:32.670Z,6.60
2018-09-29T03:14:34.853Z,6.60
2018-09-29T03:19:37.022Z,6.60
2018-09-29T03:24:39.150Z,6.50
2018-09-29T03:29:41.322Z,6.70
2018-09-29T03:34:43.696Z,6.70
2018-09-29T03:39:45.874Z,6.70
2018-09-29T03:44:48.080Z,6.60
2018-09-29T03:49:50.233Z,6.50
2018-09-29T03:54:52.411Z,6.50
2018-09-29T03:59:54.630Z,6.50
2018-09-29T04:04:56.764Z,6.40
2018-09-29T04:09:58.922Z,6.30
2018-09-29T04:15:01.090Z,6.30
2018-09-29T04:20:03.314Z,6.20
2018-09-29T04:25:05.541Z,6.20
2018-09-29T04:30:07.774Z,6.20
2018-09-29T04:35:09.930Z,6.20
2018-09-29T04:40:12.106Z,6.20
2018-09-29T04:45:14.292Z,6.20
2018-09-29T04:50:16.638Z,6.00
2018-09-29T04:55:18.783Z,6.00
2018-09-29T05:00:20.946Z,6.00
2018-09-29T05:05:23.129Z,6.00
2018-09-29T05:10:25.286Z,5.90
2018-09-29T05:15:27.515Z,5.80
2018-09-29T05:20:29.690Z,5.80
2018-09-29T05:25:31.895Z,5.90
2018-09-29T05:30:34.088Z,5.90
2018-09-29T05:35:36.287Z,5.90
2018-09-29T05:40:38.451Z,6.00
2018-09-29T05:45:40.646Z,5.90
2018-09-29T05:50:42.818Z,5.90
2018-09-29T05:55:45.155Z,5.90
2018-09-29T06:00:47.427Z,6.10
2018-09-29T06:05:49.566Z,6.30
2018-09-29T06:10:51.955Z,6.70
2018-09-29T06:15:54.094Z,7.00
2018-09-29T06:20:56.554Z,7.00
2018-09-29T06:25:58.690Z,7.00
2018-09-29T06:31:00.833Z,7.30
2018-09-29T06:36:03.121Z,7.60
2018-09-29T06:41:05.306Z,7.90
2018-09-29T06:46:07.453Z,8.20
2018-09-29T06:51:09.642Z,8.40
2018-09-29T06:56:11.814Z,8.70
2018-09-29T07:01:13.986Z,9.00
2018-09-29T07:06:16.142Z,9.10
2018-09-29T07:11:18.502Z,9.60
2018-09-29T07:16:21.886Z,10.10
2018-09-29T07:21:24.126Z,10.40
2018-09-29T07:26:26.374Z,10.70
2018-09-29T07:31:28.557Z,11.00
2018-09-29T07:36:30.682Z,10.70
2018-09-29T07:41:32.861Z,11.10
2018-09-29T07:46:35.066Z,11.60
2018-09-29T07:51:37.218Z,11.70
2018-09-29T07:56:39.354Z,12.10
2018-09-29T08:01:41.498Z,12.60
2018-09-29T08:06:43.659Z,13.40
2018-09-29T08:11:45.798Z,13.20
2018-09-29T08:16:47.936Z,13.20
2018-09-29T08:21:50.130Z,13.70
2018-09-29T08:26:52.285Z,14.40
2018-09-29T08:31:54.430Z,14.80
2018-09-29T08:36:56.590Z,15.70
2018-09-29T08:41:58.734Z,15.70
2018-09-29T08:47:00.886Z,15.50
2018-09-29T08:52:03.045Z,16.40
2018-09-29T08:57:05.210Z,16.50
2018-09-29T09:02:07.350Z,17.80
2018-09-29T09:07:09.494Z,17.60
2018-09-29T09:12:11.625Z,17.90
2018-09-29T09:17:13.778Z,17.20
2018-09-29T09:22:15.910Z,18.90
2018-09-29T09:27:18.042Z,17.90
2018-09-29T09:32:20.197Z,17.00
2018-09-29T09:37:22.358Z,18.90
2018-09-29T09:42:24.631Z,18.40
2018-09-29T09:47:26.766Z,18.50
2018-09-29T09:52:28.940Z,17.70
2018-09-29T09:57:31.126Z,18.20
2018-09-29T10:02:38.961Z,18.40
2018-09-29T10:07:41.459Z,18.60
2018-09-29T10:12:43.602Z,18.20
2018-09-29T10:17:45.757Z,16.90
2018-09-29T10:22:47.890Z,15.50
2018-09-29T10:27:50.156Z,15.70
2018-09-29T10:32:52.238Z,15.40
2018-09-29T10:37:54.377Z,15.70
2018-09-29T10:42:56.529Z,15.40
2018-09-29T10:47:58.669Z,15.00
2018-09-29T10:53:00.871Z,15.00
2018-09-29T10:58:02.937Z,14.90
2018-09-29T11:03:05.078Z,15.20
2018-09-29T11:08:07.266Z,15.40
2018-09-29T11:13:09.406Z,15.60
2018-09-29T11:18:11.554Z,15.50
2018-09-29T11:23:13.697Z,15.50
2018-09-29T11:28:15.876Z,15.40
2018-09-29T11:33:17.982Z,15.30
2018-09-29T11:38:20.128Z,15.40
2018-09-29T11:43:22.353Z,15.40
2018-09-29T11:48:24.497Z,15.80
2018-09-29T11:53:26.743Z,15.90
2018-09-29T11:58:28.883Z,15.50
2018-09-29T12:03:31.026Z,15.50
2018-09-29T12:08:33.155Z,15.50
2018-09-29T12:13:35.290Z,15.50
2018-09-29T12:18:37.426Z,15.50
2018-09-29T12:23:39.582Z,15.60
2018-09-29T12:28:41.705Z,15.60
2018-09-29T12:33:43.833Z,15.70
2018-09-29T12:38:45.973Z,15.90
2018-09-29T12:43:48.189Z,15.90
2018-09-29T12:48:50.326Z,16.10
2018-09-29T12:53:52.461Z,16.00
2018-09-29T12:58:54.709Z,16.10
2018-09-29T13:03:56.763Z,16.10
2018-09-29T13:08:58.910Z,16.10
2018-09-29T13:14:01.063Z,16.10
2018-09-29T13:19:03.194Z,16.10
2018-09-29T13:24:05.374Z,16.30
2018-09-29T13:29:07.569Z,16.30
2018-09-29T13:34:09.693Z,16.60
2018-09-29T13:39:11.841Z,16.60
2018-09-29T13:44:13.974Z,16.40
2018-09-29T13:49:16.109Z,16.40
2018-09-29T13:54:18.230Z,16.40
2018-09-29T13:59:20.366Z,16.40
2018-09-29T14:04:22.485Z,16.50
2018-09-29T14:09:24.609Z,16.50
2018-09-29T14:14:26.739Z,16.50
2018-09-29T14:19:28.870Z,16.40
2018-09-29T14:24:30.994Z,16.40
2018-09-29T14:29:33.114Z,16.40
2018-09-29T14:34:35.234Z,16.40
2018-09-29T14:39:37.366Z,16.40
2018-09-29T14:44:39.497Z,16.50
2018-09-29T14:49:41.630Z,16.50
2018-09-29T14:54:43.746Z,16.50
2018-09-29T14:59:45.869Z,16.50
2018-09-29T15:04:47.990Z,16.40
2018-09-29T15:09:50.130Z,16.40
2018-09-29T15:14:52.267Z,16.40
2018-09-29T15:19:54.401Z,16.40
2018-09-29T15:24:56.542Z,16.40
2018-09-29T15:29:58.673Z,16.40
2018-09-29T15:35:00.808Z,16.40
2018-09-29T15:40:03.070Z,16.30
2018-09-29T15:45:06.617Z,16.30
2018-09-29T15:50:08.742Z,16.30
2018-09-29T15:55:10.961Z,16.20
2018-09-29T16:00:13.026Z,16.20
2018-09-29T16:05:15.210Z,16.10
2018-09-29T16:10:17.346Z,16.10
2018-09-29T16:15:19.517Z,16.10
2018-09-29T16:20:21.650Z,16.00
2018-09-29T16:25:23.774Z,15.90
2018-09-29T16:30:25.910Z,15.90
2018-09-29T16:35:28.038Z,15.80
2018-09-29T16:40:30.346Z,15.70
2018-09-29T16:45:32.473Z,15.60
2018-09-29T16:50:34.722Z,15.50
2018-09-29T16:55:36.853Z,15.40
2018-09-29T17:00:39.000Z,15.30
2018-09-29T17:05:41.166Z,15.20
2018-09-29T17:10:43.329Z,15.10
2018-09-29T17:15:45.472Z,15.00
2018-09-29T17:20:47.606Z,14.80
2018-09-29T17:25:49.761Z,14.60
2018-09-29T17:30:51.882Z,14.40
2018-09-29T17:35:54.079Z,14.30
2018-09-29T17:40:56.264Z,14.10
2018-09-29T17:45:58.374Z,13.90
2018-09-29T17:51:00.537Z,13.60
2018-09-29T17:56:02.814Z,13.20
2018-09-29T18:01:05.182Z,13.30
2018-09-29T18:06:07.394Z,13.20
2018-09-29T18:11:09.570Z,13.00
2018-09-29T18:16:11.737Z,12.80
2018-09-29T18:21:13.882Z,12.60
2018-09-29T18:26:16.127Z,12.40
2018-09-29T18:31:18.302Z,12.40
2018-09-29T18:36:20.455Z,12.20
2018-09-29T18:41:22.703Z,12.00
2018-09-29T18:46:25.642Z,11.90
2018-09-29T18:51:27.850Z,11.50
2018-09-29T18:56:30.001Z,11.20
2018-09-29T19:01:32.150Z,11.20
2018-09-29T19:06:34.286Z,11.20
2018-09-29T19:11:36.409Z,11.10
2018-09-29T19:16:38.562Z,11.10
2018-09-29T19:21:40.742Z,10.90
2018-09-29T19:26:42.894Z,10.80
2018-09-29T19:31:45.087Z,10.80
2018-09-29T19:36:47.442Z,10.60
2018-09-29T19:41:49.618Z,10.50
2018-09-29T19:46:51.771Z,10.30
2018-09-29T19:51:54.206Z,10.10
2018-09-29T19:56:56.340Z,9.90
2018-09-29T20:01:58.481Z,9.70
2018-09-29T20:07:00.606Z,9.60
2018-09-29T20:12:02.746Z,9.50
2018-09-29T20:17:04.906Z,9.40
2018-09-29T20:22:07.827Z,9.50
2018-09-29T20:27:09.957Z,9.40
2018-09-29T20:32:12.074Z,9.30
2018-09-29T20:37:14.226Z,9.20
2018-09-29T20:42:16.355Z,9.20
2018-09-29T20:47:18.490Z,9.20
2018-09-29T20:52:20.621Z,9.20
2018-09-29T20:57:22.758Z,9.00
2018-09-29T21:02:24.894Z,8.90
2018-09-29T21:07:27.061Z,8.90
2018-09-29T21:12:29.197Z,8.90
2018-09-29T21:17:31.378Z,8.90
2018-09-29T21:22:33.545Z,8.90
2018-09-29T21:27:35.690Z,8.90
2018-09-29T21:32:37.838Z,8.90
2018-09-29T21:37:39.978Z,8.90
2018-09-29T21:48:01.834Z,8.80
2018-09-29T21:53:04.126Z,8.60
2018-09-29T21:58:06.264Z,8.70
2018-09-29T22:03:08.393Z,8.70
2018-09-29T22:08:10.817Z,8.60
2018-09-29T22:13:12.949Z,8.60
2018-09-29T22:18:15.083Z,8.60
2018-09-29T22:23:17.206Z,8.60
2018-09-29T22:28:19.325Z,8.70
2018-09-29T22:33:21.449Z,8.70
2018-09-29T22:38:23.569Z,8.60
2018-09-29T22:43:25.758Z,8.50
2018-09-29T22:48:27.895Z,8.50
2018-09-29T22:53:30.038Z,8.40
2018-09-29T22:58:32.173Z,8.50
2018-09-29T23:03:34.301Z,8.50
2018-09-29T23:08:36.433Z,8.80
2018-09-29T23:13:38.605Z,8.90
2018-09-29T23:18:40.754Z,8.80
2018-09-29T23:23:42.902Z,8.80
2018-09-29T23:28:45.026Z,8.60
2018-09-29T23:33:47.150Z,8.40
2018-09-29T23:38:49.438Z,8.50
2018-09-29T23:43:51.570Z,8.30
2018-09-29T23:48:53.692Z,8.10
2018-09-29T23:53:55.821Z,7.90
2018-09-29T23:58:57.978Z,7.90
